createdAt,value
2022-08-23T00:02:06.968Z,4.85
2022-08-23T00:05:03.433Z,4.28
2022-08-23T00:07:31.206Z,4.28
2022-08-23T00:10:00.374Z,4.45
2022-08-23T00:12:27.269Z,3.30
2022-08-23T00:14:55.493Z,2.50
2022-08-23T00:17:33.419Z,3.00
2022-08-23T00:20:06.955Z,2.90
2022-08-23T00:22:34.128Z,3.13
2022-08-23T00:25:00.990Z,3.25
2022-08-23T00:27:28.562Z,4.20
2022-08-23T00:29:57.353Z,4.45
2022-08-23T00:32:28.237Z,4.28
2022-08-23T00:34:56.150Z,4.20
2022-08-23T00:37:23.928Z,4.28
2022-08-23T00:39:51.811Z,5.22
2022-08-23T00:42:59.295Z,4.32
2022-08-23T00:45:55.144Z,5.03
2022-08-23T00:48:22.700Z,4.50
2022-08-23T00:50:58.413Z,4.30
2022-08-23T00:53:32.070Z,4.25
2022-08-23T00:56:03.455Z,4.57
2022-08-23T00:58:30.630Z,5.10
2022-08-23T01:00:59.992Z,4.70
2022-08-23T01:03:29.440Z,5.07
2022-08-23T01:06:08.955Z,4.97
2022-08-23T01:08:38.345Z,4.97
2022-08-23T01:11:39.448Z,5.65
2022-08-23T01:14:31.077Z,5.18
2022-08-23T01:17:13.653Z,5.13
2022-08-23T01:19:47.412Z,5.47
2022-08-23T01:22:46.574Z,5.75
2022-08-23T01:25:17.288Z,5.57
2022-08-23T01:27:45.580Z,5.75
2022-08-23T01:30:22.482Z,5.78
2022-08-23T01:32:59.028Z,5.53
2022-08-23T01:35:45.554Z,5.82
2022-08-23T01:38:13.211Z,5.78
2022-08-23T01:40:41.706Z,6.40
2022-08-23T01:43:09.065Z,5.40
2022-08-23T01:45:39.855Z,5.85
2022-08-23T01:48:08.259Z,5.80
2022-08-23T01:53:07.994Z,5.45
2022-08-23T01:55:36.652Z,5.97
2022-08-23T01:58:06.068Z,5.25
2022-08-23T02:00:38.910Z,5.50
2022-08-23T02:03:08.980Z,5.60
2022-08-23T02:05:37.386Z,4.70
2022-08-23T02:08:25.313Z,4.10
2022-08-23T02:10:54.900Z,1.90
2022-08-23T02:13:22.757Z,2.75
2022-08-23T02:15:51.452Z,3.55
2022-08-23T02:18:20.981Z,4.75
2022-08-23T02:20:53.127Z,5.20
2022-08-23T02:23:21.328Z,5.22
2022-08-23T02:25:50.362Z,5.90
2022-08-23T02:28:19.737Z,5.60
2022-08-23T02:30:47.661Z,5.87
2022-08-23T02:33:15.660Z,5.43
2022-08-23T02:35:44.496Z,6.17
2022-08-23T02:38:12.887Z,5.20
2022-08-23T02:40:41.418Z,4.87
2022-08-23T02:43:08.605Z,5.45
2022-08-23T02:45:37.081Z,4.73
2022-08-23T02:48:06.456Z,5.25
2022-08-23T02:50:41.642Z,4.50
2022-08-23T02:53:09.068Z,4.33
2022-08-23T02:55:35.978Z,5.23
2022-08-23T02:58:02.894Z,4.85
2022-08-23T03:00:30.357Z,5.77
2022-08-23T03:02:57.368Z,4.93
2022-08-23T03:05:26.824Z,4.10
2022-08-23T03:07:53.773Z,3.97
2022-08-23T03:10:21.580Z,4.57
2022-08-23T03:12:54.661Z,4.07
2022-08-23T03:15:21.552Z,3.83
2022-08-23T03:17:48.962Z,3.30
2022-08-23T03:20:16.322Z,3.80
2022-08-23T03:22:48.432Z,3.97
2022-08-23T03:25:23.920Z,4.00
2022-08-23T03:28:06.505Z,3.80
2022-08-23T03:30:36.182Z,3.60
2022-08-23T03:33:04.354Z,4.43
2022-08-23T03:35:31.259Z,4.93
2022-08-23T03:37:58.872Z,6.47
2022-08-23T03:40:26.052Z,5.03
2022-08-23T03:42:53.237Z,2.50
2022-08-23T03:45:24.099Z,2.47
2022-08-23T03:47:52.034Z,2.20
2022-08-23T03:50:19.625Z,2.10
2022-08-23T03:52:47.101Z,1.97
2022-08-23T03:55:15.347Z,2.40
2022-08-23T03:57:44.706Z,3.37
2022-08-23T04:00:13.548Z,5.73
2022-08-23T04:02:46.238Z,6.10
2022-08-23T04:05:14.111Z,6.70
2022-08-23T04:07:53.790Z,7.13
2022-08-23T04:10:23.762Z,6.77
2022-08-23T04:12:54.866Z,7.43
2022-08-23T04:15:22.683Z,6.63
2022-08-23T04:17:49.641Z,7.43
2022-08-23T04:20:16.989Z,7.43
2022-08-23T04:22:58.074Z,7.63
2022-08-23T04:25:33.737Z,8.63
2022-08-23T04:28:03.216Z,10.33
2022-08-23T04:30:31.311Z,10.65
2022-08-23T04:32:58.527Z,10.93
2022-08-23T04:35:26.110Z,12.33
2022-08-23T04:37:53.698Z,13.07
2022-08-23T04:40:39.315Z,12.67
2022-08-23T04:43:08.694Z,12.95
2022-08-23T04:45:39.458Z,13.97
2022-08-23T04:48:11.697Z,13.87
2022-08-23T04:50:42.531Z,13.53
2022-08-23T04:53:17.984Z,14.05
2022-08-23T04:55:55.926Z,14.37
2022-08-23T04:58:22.739Z,14.68
2022-08-23T05:00:52.887Z,13.98
2022-08-23T05:03:25.134Z,13.90
2022-08-23T05:05:53.975Z,13.57
2022-08-23T05:08:25.950Z,12.75
2022-08-23T05:10:54.108Z,14.75
2022-08-23T05:13:22.032Z,11.80
2022-08-23T05:15:51.677Z,12.73
2022-08-23T05:18:20.740Z,11.25
2022-08-23T05:20:47.623Z,12.05
2022-08-23T05:23:14.575Z,12.30
2022-08-23T05:25:53.422Z,13.00
2022-08-23T05:28:33.332Z,12.60
2022-08-23T05:31:05.079Z,12.82
2022-08-23T05:33:41.051Z,12.35
2022-08-23T05:36:10.318Z,13.00
2022-08-23T05:38:38.677Z,14.00
2022-08-23T05:41:07.164Z,13.27
2022-08-23T05:43:34.717Z,13.77
2022-08-23T05:46:12.772Z,14.35
2022-08-23T05:48:49.191Z,15.02
2022-08-23T05:51:28.213Z,14.35
2022-08-23T05:53:58.892Z,14.18
2022-08-23T05:56:29.363Z,15.40
2022-08-23T05:59:00.118Z,14.45
2022-08-23T06:01:30.297Z,15.10
2022-08-23T06:04:07.040Z,15.35
2022-08-23T06:06:34.981Z,13.20
2022-08-23T06:09:07.082Z,14.57
2022-08-23T06:11:35.189Z,12.93
2022-08-23T06:14:04.775Z,12.77
2022-08-23T06:16:34.618Z,11.75
2022-08-23T06:19:02.541Z,11.30
2022-08-23T06:21:48.008Z,9.77
2022-08-23T06:24:20.533Z,10.38
2022-08-23T06:27:00.549Z,10.52
2022-08-23T06:29:28.058Z,8.85
2022-08-23T06:32:13.558Z,9.52
2022-08-23T06:34:52.962Z,9.73
2022-08-23T06:38:04.356Z,9.82
2022-08-23T06:41:00.492Z,9.00
2022-08-23T06:43:27.645Z,8.75
2022-08-23T06:46:19.153Z,8.40
2022-08-23T06:48:47.193Z,7.80
2022-08-23T06:51:24.318Z,7.28
2022-08-23T06:54:06.383Z,7.53
2022-08-23T06:56:54.124Z,7.20
2022-08-23T06:59:33.495Z,7.97
2022-08-23T07:02:29.763Z,7.68
2022-08-23T07:05:16.193Z,7.28
2022-08-23T07:07:54.434Z,7.35
2022-08-23T07:10:21.676Z,6.53
2022-08-23T07:12:50.163Z,6.82
2022-08-23T07:15:20.102Z,6.30
2022-08-23T07:17:47.348Z,6.82
2022-08-23T07:20:14.440Z,6.68
2022-08-23T07:22:44.580Z,6.35
2022-08-23T07:25:12.179Z,6.07
2022-08-23T07:27:40.024Z,6.65
2022-08-23T07:30:08.903Z,5.95
2022-08-23T07:32:38.131Z,6.20
2022-08-23T07:35:21.533Z,6.00
2022-08-23T07:37:49.854Z,5.97
2022-08-23T07:40:20.768Z,5.18
2022-08-23T07:42:51.154Z,4.97
2022-08-23T07:45:18.546Z,5.30
2022-08-23T07:47:54.076Z,5.13
2022-08-23T07:50:22.595Z,5.97
2022-08-23T07:52:50.756Z,4.72
2022-08-23T07:55:17.923Z,4.88
2022-08-23T07:58:21.480Z,4.28
2022-08-23T08:01:18.529Z,4.40
2022-08-23T08:03:52.582Z,4.18
2022-08-23T08:06:25.806Z,4.28
2022-08-23T08:08:53.162Z,4.32
2022-08-23T08:11:22.416Z,4.88
2022-08-23T08:13:51.535Z,4.75
2022-08-23T08:16:30.935Z,4.50
2022-08-23T08:18:59.861Z,4.65
2022-08-23T08:21:45.653Z,5.13
2022-08-23T08:24:30.977Z,4.95
2022-08-23T08:27:02.762Z,5.00
2022-08-23T08:29:29.797Z,4.85
2022-08-23T08:31:57.532Z,4.30
2022-08-23T08:34:24.936Z,4.25
2022-08-23T08:36:57.985Z,4.43
2022-08-23T08:39:30.101Z,3.92
2022-08-23T08:42:05.366Z,3.70
2022-08-23T08:44:49.625Z,3.25
2022-08-23T08:47:43.385Z,3.47
2022-08-23T08:50:36.725Z,3.28
2022-08-23T08:53:25.538Z,3.67
2022-08-23T08:56:21.025Z,3.40
2022-08-23T08:58:59.068Z,3.63
2022-08-23T09:01:31.235Z,3.45
2022-08-23T09:03:58.584Z,3.22
2022-08-23T09:06:51.363Z,3.13
2022-08-23T09:09:54.506Z,3.13
2022-08-23T09:12:28.763Z,2.85
2022-08-23T09:14:55.807Z,2.95
2022-08-23T09:17:43.925Z,2.88
2022-08-23T09:20:15.950Z,2.67
2022-08-23T09:22:51.323Z,2.67
2022-08-23T09:25:25.618Z,2.95
2022-08-23T09:28:00.674Z,2.80
2022-08-23T09:30:52.913Z,2.28
2022-08-23T09:33:38.467Z,2.47
2022-08-23T09:36:25.648Z,2.88
2022-08-23T09:39:02.708Z,2.80
2022-08-23T09:41:38.956Z,2.70
2022-08-23T09:44:10.140Z,2.72
2022-08-23T09:46:41.917Z,2.60
2022-08-23T09:49:28.448Z,2.75
2022-08-23T09:52:22.104Z,2.85
2022-08-23T09:55:09.822Z,3.03
2022-08-23T09:57:48.144Z,2.70
2022-08-23T10:00:17.666Z,3.30
2022-08-23T10:02:50.343Z,2.78
2022-08-23T10:05:38.558Z,2.63
2022-08-23T10:08:10.864Z,2.60
2022-08-23T10:10:55.112Z,3.10
2022-08-23T10:13:31.250Z,2.17
2022-08-23T10:16:29.165Z,2.88
2022-08-23T10:19:08.944Z,2.35
2022-08-23T10:21:36.327Z,2.60
2022-08-23T10:24:35.876Z,2.00
2022-08-23T10:27:37.352Z,2.50
2022-08-23T10:30:14.196Z,2.58
2022-08-23T10:32:58.605Z,2.40
2022-08-23T10:35:36.217Z,2.30
2022-08-23T10:38:21.308Z,2.13
2022-08-23T10:41:08.341Z,2.58
2022-08-23T10:43:48.265Z,2.08
2022-08-23T10:46:15.199Z,1.90
2022-08-23T10:48:57.963Z,2.17
2022-08-23T10:51:32.857Z,1.88
2022-08-23T10:54:10.025Z,2.17
2022-08-23T10:56:43.006Z,2.40
2022-08-23T10:59:23.994Z,1.80
2022-08-23T11:02:03.441Z,1.92
2022-08-23T11:04:51.876Z,1.80
2022-08-23T11:07:44.291Z,1.85
2022-08-23T11:10:29.859Z,2.03
2022-08-23T11:13:11.977Z,1.73
2022-08-23T11:15:45.391Z,1.90
2022-08-23T11:18:34.048Z,2.20
2022-08-23T11:21:05.044Z,2.25
2022-08-23T11:23:42.837Z,2.28
2022-08-23T11:26:36.629Z,1.92
2022-08-23T11:29:06.575Z,1.80
2022-08-23T11:31:43.032Z,1.90
2022-08-23T11:34:29.332Z,2.10
2022-08-23T11:37:21.937Z,2.30
2022-08-23T11:39:59.767Z,2.10
2022-08-23T11:42:40.031Z,2.00
2022-08-23T11:45:22.641Z,1.90
2022-08-23T11:48:19.505Z,2.10
2022-08-23T11:50:57.762Z,1.92
2022-08-23T11:53:52.980Z,2.00
2022-08-23T11:56:47.392Z,2.33
2022-08-23T11:59:34.966Z,2.00
2022-08-23T12:02:32.816Z,2.15
2022-08-23T12:05:18.097Z,2.20
2022-08-23T12:08:17.048Z,2.03
2022-08-23T12:10:44.084Z,2.20
2022-08-23T12:13:20.387Z,1.90
2022-08-23T12:16:16.698Z,1.95
2022-08-23T12:18:47.669Z,2.15
2022-08-23T12:21:24.483Z,2.00
2022-08-23T12:24:01.283Z,2.28
2022-08-23T12:26:40.104Z,2.05
2022-08-23T12:29:22.978Z,2.25
2022-08-23T12:31:59.522Z,2.00
2022-08-23T12:34:57.763Z,1.80
2022-08-23T12:37:34.089Z,2.08
2022-08-23T12:40:04.503Z,2.00
2022-08-23T12:42:37.733Z,1.75
2022-08-23T12:45:14.963Z,1.77
2022-08-23T12:47:44.017Z,2.00
2022-08-23T12:50:13.552Z,1.95
2022-08-23T12:52:40.728Z,2.00
2022-08-23T12:55:19.619Z,2.15
2022-08-23T12:57:55.167Z,1.80
2022-08-23T13:00:26.622Z,1.92
2022-08-23T13:02:57.502Z,2.20
2022-08-23T13:05:32.032Z,2.08
2022-08-23T13:08:01.474Z,2.05
2022-08-23T13:10:28.517Z,2.10
2022-08-23T13:12:55.553Z,2.15
2022-08-23T13:15:42.779Z,2.30
2022-08-23T13:18:09.787Z,2.10
2022-08-23T13:20:36.902Z,2.50
2022-08-23T13:23:09.317Z,2.40
2022-08-23T13:25:41.941Z,2.22
2022-08-23T13:28:26.789Z,2.03
2022-08-23T13:31:07.933Z,2.50
2022-08-23T13:33:35.045Z,2.20
2022-08-23T13:36:13.437Z,2.20
2022-08-23T13:38:43.237Z,2.10
2022-08-23T13:41:26.389Z,2.22
2022-08-23T13:43:54.872Z,2.30
2022-08-23T13:46:31.156Z,2.10
2022-08-23T13:49:05.969Z,2.53
2022-08-23T13:51:38.581Z,2.22
2022-08-23T13:54:15.842Z,2.40
2022-08-23T13:56:54.956Z,2.15
2022-08-23T13:59:21.657Z,2.30
2022-08-23T14:01:49.872Z,2.88
2022-08-23T14:04:16.637Z,2.30
2022-08-23T14:06:43.489Z,2.03
2022-08-23T14:09:16.202Z,2.28
2022-08-23T14:11:43.615Z,1.88
2022-08-23T14:14:12.364Z,2.25
2022-08-23T14:16:40.188Z,2.45
2022-08-23T14:19:19.203Z,2.15
2022-08-23T14:21:56.702Z,2.17
2022-08-23T14:24:23.510Z,2.22
2022-08-23T14:26:52.519Z,2.05
2022-08-23T14:29:22.531Z,1.95
2022-08-23T14:31:51.402Z,2.20
2022-08-23T14:34:18.672Z,2.30
2022-08-23T14:39:32.409Z,2.40
2022-08-23T14:41:59.187Z,2.47
2022-08-23T14:44:30.235Z,2.38
2022-08-23T14:47:00.103Z,3.10
2022-08-23T14:49:27.156Z,2.58
2022-08-23T14:51:54.202Z,2.58
2022-08-23T14:54:24.938Z,2.78
2022-08-23T14:56:53.360Z,2.40
2022-08-23T14:59:20.609Z,2.58
2022-08-23T15:01:49.328Z,2.40
2022-08-23T15:04:19.217Z,2.20
2022-08-23T15:07:13.944Z,2.45
2022-08-23T15:09:34.299Z,2.15
2022-08-23T15:14:48.746Z,2.20
2022-08-23T15:17:15.722Z,2.25
2022-08-23T15:19:42.552Z,2.33
2022-08-23T15:22:18.458Z,2.20
2022-08-23T15:24:48.337Z,2.30
2022-08-23T15:27:15.108Z,2.10
2022-08-23T15:29:42.018Z,2.05
2022-08-23T15:32:08.848Z,2.30
2022-08-23T15:34:37.822Z,2.28
2022-08-23T15:37:06.912Z,2.28
2022-08-23T15:39:33.696Z,2.45
2022-08-23T15:42:00.569Z,2.65
2022-08-23T15:44:27.442Z,2.58
2022-08-23T15:46:54.636Z,2.47
2022-08-23T15:49:23.174Z,2.30
2022-08-23T15:51:50.047Z,2.20
2022-08-23T15:54:16.858Z,2.33
2022-08-23T15:56:47.449Z,2.40
2022-08-23T15:59:16.996Z,2.17
2022-08-23T16:01:44.357Z,2.20
2022-08-23T16:04:11.673Z,2.50
2022-08-23T16:06:40.124Z,2.08
2022-08-23T16:09:14.065Z,2.50
2022-08-23T16:11:43.814Z,2.65
2022-08-23T16:14:10.636Z,2.85
2022-08-23T16:16:40.093Z,2.58
2022-08-23T16:19:07.518Z,2.28
2022-08-23T16:21:37.698Z,2.75
2022-08-23T16:24:06.053Z,3.08
2022-08-23T16:26:37.316Z,2.60
2022-08-23T16:29:08.588Z,2.65
2022-08-23T16:31:38.307Z,2.47
2022-08-23T16:34:09.327Z,2.60
2022-08-23T16:36:36.566Z,2.15
2022-08-23T16:39:04.248Z,2.30
2022-08-23T16:41:31.120Z,2.88
2022-08-23T16:43:57.986Z,2.00
2022-08-23T16:46:25.090Z,2.88
2022-08-23T16:48:51.916Z,2.60
2022-08-23T16:51:19.385Z,3.05
2022-08-23T16:53:57.078Z,4.95
2022-08-23T16:56:31.892Z,5.03
2022-08-23T16:58:59.567Z,4.63
2022-08-23T17:01:27.438Z,4.47
2022-08-23T17:03:54.342Z,4.57
2022-08-23T17:06:21.792Z,4.60
2022-08-23T17:08:48.671Z,6.20
2022-08-23T17:11:18.972Z,6.05
2022-08-23T17:13:47.459Z,6.68
2022-08-23T17:16:14.454Z,6.22
2022-08-23T17:18:41.693Z,6.18
2022-08-23T17:21:09.318Z,6.07
2022-08-23T17:23:40.588Z,5.88
2022-08-23T17:26:09.493Z,5.13
2022-08-23T17:28:36.373Z,5.03
2022-08-23T17:31:03.394Z,5.05
2022-08-23T17:33:30.305Z,5.82
2022-08-23T17:35:57.064Z,5.95
2022-08-23T17:38:24.092Z,6.38
2022-08-23T17:40:50.988Z,7.13
2022-08-23T17:43:17.827Z,8.05
2022-08-23T17:45:47.338Z,9.38
2022-08-23T17:48:16.438Z,13.68
2022-08-23T17:50:43.828Z,19.58
2022-08-23T17:53:11.403Z,29.13
2022-08-23T17:55:39.574Z,31.65
2022-08-23T17:58:10.041Z,26.73
2022-08-23T18:00:39.396Z,29.63
2022-08-23T18:03:06.874Z,25.23
2022-08-23T18:05:34.681Z,19.70
2022-08-23T18:08:02.135Z,10.48
2022-08-23T18:10:30.102Z,10.07
2022-08-23T18:12:58.538Z,9.00
2022-08-23T18:15:28.801Z,9.52
2022-08-23T18:17:58.345Z,9.65
2022-08-23T18:20:27.298Z,9.70
2022-08-23T18:22:58.839Z,9.70
2022-08-23T18:25:26.791Z,9.85
2022-08-23T18:28:06.308Z,10.05
2022-08-23T18:30:45.547Z,9.07
2022-08-23T18:33:13.689Z,10.05
2022-08-23T18:35:41.749Z,9.57
2022-08-23T18:38:09.503Z,9.45
2022-08-23T18:40:45.251Z,9.48
2022-08-23T18:43:22.208Z,9.98
2022-08-23T18:45:52.768Z,10.38
2022-08-23T18:48:20.689Z,10.85
2022-08-23T18:50:48.073Z,9.82
2022-08-23T18:53:15.470Z,10.32
2022-08-23T18:55:42.681Z,10.38
2022-08-23T18:58:10.035Z,10.63
2022-08-23T19:00:38.273Z,10.10
2022-08-23T19:03:06.798Z,11.68
2022-08-23T19:05:41.909Z,10.48
2022-08-23T19:08:12.094Z,10.85
2022-08-23T19:10:39.731Z,11.60
2022-08-23T19:13:08.448Z,10.60
2022-08-23T19:15:37.395Z,11.10
2022-08-23T19:18:04.647Z,11.70
2022-08-23T19:20:32.394Z,10.88
2022-08-23T19:22:59.636Z,11.25
2022-08-23T19:25:27.803Z,11.10
2022-08-23T19:27:58.499Z,12.25
2022-08-23T19:30:28.321Z,11.55
2022-08-23T19:32:56.619Z,12.30
2022-08-23T19:35:23.632Z,12.02
2022-08-23T19:37:50.650Z,12.23
2022-08-23T19:40:17.995Z,12.68
2022-08-23T19:42:44.934Z,13.40
2022-08-23T19:45:12.757Z,14.23
2022-08-23T19:47:40.384Z,13.15
2022-08-23T19:50:09.784Z,13.77
2022-08-23T19:52:37.457Z,14.02
2022-08-23T19:55:07.448Z,16.15
2022-08-23T19:57:37.195Z,16.95
2022-08-23T20:00:18.479Z,16.55
2022-08-23T20:02:47.391Z,16.27
2022-08-23T20:05:14.761Z,15.85
2022-08-23T20:07:42.285Z,17.15
2022-08-23T20:10:10.982Z,15.57
2022-08-23T20:12:38.229Z,17.23
2022-08-23T20:15:05.855Z,18.05
2022-08-23T20:17:32.940Z,17.73
2022-08-23T20:19:59.807Z,17.92
2022-08-23T20:22:45.213Z,18.27
2022-08-23T20:25:12.429Z,18.55
2022-08-23T20:27:39.256Z,19.08
2022-08-23T20:30:08.483Z,19.92
2022-08-23T20:32:36.228Z,19.58
2022-08-23T20:35:05.710Z,20.60
2022-08-23T20:37:32.668Z,19.42
2022-08-23T20:40:00.300Z,20.10
2022-08-23T20:42:27.264Z,19.42
2022-08-23T20:44:54.248Z,21.48
2022-08-23T20:47:21.111Z,22.20
2022-08-23T20:49:48.051Z,22.63
2022-08-23T20:52:16.728Z,22.65
2022-08-23T20:54:45.165Z,22.13
2022-08-23T20:57:12.105Z,21.55
2022-08-23T20:59:44.227Z,23.52
2022-08-23T21:02:11.428Z,25.90
2022-08-23T21:04:38.320Z,27.05
2022-08-23T21:07:08.328Z,28.52
2022-08-23T21:09:35.888Z,28.45
2022-08-23T21:12:02.838Z,28.40
2022-08-23T21:14:29.727Z,28.00
2022-08-23T21:16:56.636Z,27.88
2022-08-23T21:19:23.415Z,26.95
2022-08-23T21:21:50.610Z,26.48
2022-08-23T21:24:17.753Z,26.40
2022-08-23T21:26:44.599Z,26.23
2022-08-23T21:29:11.500Z,27.40
2022-08-23T21:31:39.117Z,26.45
2022-08-23T21:34:07.664Z,27.70
2022-08-23T21:36:35.108Z,27.15
2022-08-23T21:39:02.239Z,26.42
2022-08-23T21:41:34.605Z,27.40
2022-08-23T21:44:02.860Z,27.17
2022-08-23T21:46:29.724Z,27.15
2022-08-23T21:48:56.600Z,26.98
2022-08-23T21:51:24.726Z,25.65
2022-08-23T21:53:51.920Z,26.67
2022-08-23T21:56:19.281Z,26.83
2022-08-23T21:58:46.693Z,28.55
2022-08-23T22:01:18.624Z,29.00
2022-08-23T22:03:45.696Z,29.45
2022-08-23T22:06:15.253Z,28.08
2022-08-23T22:08:43.160Z,29.92
2022-08-23T22:11:11.372Z,28.40
2022-08-23T22:13:51.998Z,27.40
2022-08-23T22:16:18.797Z,28.40
2022-08-23T22:18:45.587Z,28.80
2022-08-23T22:21:12.497Z,27.95
2022-08-23T22:23:43.358Z,26.90
2022-08-23T22:26:12.190Z,27.70
2022-08-23T22:28:39.832Z,28.60
2022-08-23T22:31:07.448Z,29.42
2022-08-23T22:33:34.430Z,27.52
2022-08-23T22:36:10.893Z,31.20
2022-08-23T22:38:38.481Z,29.77
2022-08-23T22:41:06.289Z,30.60
2022-08-23T22:43:33.052Z,30.92
2022-08-23T22:46:02.022Z,30.05
2022-08-23T22:48:31.836Z,29.27
2022-08-23T22:51:11.956Z,29.67
2022-08-23T22:53:43.053Z,29.63
2022-08-23T22:56:13.568Z,29.05
2022-08-23T22:58:40.879Z,29.33
2022-08-23T23:01:13.349Z,29.80
2022-08-23T23:03:41.882Z,29.17
2022-08-23T23:06:08.849Z,29.25
2022-08-23T23:08:35.689Z,29.48
2022-08-23T23:11:05.682Z,30.13
2022-08-23T23:13:32.889Z,29.77
2022-08-23T23:16:03.306Z,28.58
2022-08-23T23:18:30.086Z,28.65
2022-08-23T23:21:00.358Z,29.77
2022-08-23T23:23:28.657Z,27.52
2022-08-23T23:25:55.594Z,29.02
2022-08-23T23:28:22.742Z,28.67
2022-08-23T23:30:52.988Z,27.75
2022-08-23T23:33:21.454Z,29.60
2022-08-23T23:35:49.648Z,29.55
2022-08-23T23:38:16.748Z,29.42
2022-08-23T23:40:44.218Z,29.35
2022-08-23T23:43:13.078Z,28.63
2022-08-23T23:45:41.299Z,31.15
2022-08-23T23:48:08.660Z,31.83
2022-08-23T23:50:36.875Z,32.40
2022-08-23T23:53:04.516Z,32.97
2022-08-23T23:55:31.458Z,33.30
2022-08-23T23:57:58.683Z,32.90
